Página principal
METAR-TAF:

METAR-TAF

Aeroportos :

Kunming, China

latitude: 25-01N, longitude: 102-41E, altura: 1892 m

Observação actual do tempo

O boletim foi feito há 29 minutos, às 14:00 UTC
Vento 4 kt de sul
Temperatura 17°C
Humidade 88%
Pressão 1022 hPa
Visibilidade 10 km ou mais
sem nuvens abaixo de 1500 metros e sem cumulonimbus

METAR: ZPPP 231400Z 19002MPS CAVOK 17/15 Q1022 NOSIG

Hora: 22:29 (14:29 UTC)

Previsão

O boletim foi feito há 7 horas e 24 minutos, às 07:05 UTC
Previsão válida de 23 às 12 UTC a 24 às 12 UTC
Vento 10 kt de sudoeste
Visibilidade 10 km ou mais
Nuvens dispersasa uma altura de 2000 ft
Nuvens fragmentadasa uma altura de 4000 ft

TAF: ZPPP 230705Z 2312/2412 22005MPS 9999 SCT020 BKN040 TX25/2408Z TN15/2323Z

Observações e previsões do tempo de mais de 4000 aeroportos (mensagens METAR e TAF).

As estações disponíveis são os pontos amarelos e vermelhos sobre o mapa.

Mova o rato sobre o mapa para ver o nome da estação.

Depois clique no ponto para visualizar as observações e previsões meteorológicas.

Para alterar o mapa : clique nos botões verdes com uma cruz preta para aumentar o zoom; no botão verde com uma pitada de zoom; ou nas setas verdes para mapas adjacentes.


METAR-TAF: